createdAt,value
2019-03-13T00:00:54.031Z,101328.55
2019-03-13T00:03:24.032Z,101312.39
2019-03-13T00:05:53.847Z,101317.63
2019-03-13T00:08:24.163Z,101314.96
2019-03-13T00:10:54.247Z,101324.43
2019-03-13T00:13:24.547Z,101323.77
2019-03-13T00:15:54.458Z,101312.63
2019-03-13T00:18:24.264Z,101302.06
2019-03-13T00:20:54.123Z,101308.95
2019-03-13T00:23:23.922Z,101334.28
2019-03-13T00:25:53.600Z,101334.58
2019-03-13T00:28:23.321Z,101336.77
2019-03-13T00:30:53.136Z,101325.48
2019-03-13T00:33:23.155Z,101321.10
2019-03-13T00:35:52.881Z,101323.73
2019-03-13T00:38:22.683Z,101331.57
2019-03-13T00:40:52.682Z,101330.66
2019-03-13T00:43:22.542Z,101321.54
2019-03-13T00:45:52.531Z,101314.33
2019-03-13T00:48:22.370Z,101311.91
2019-03-13T00:50:52.321Z,101317.98
2019-03-13T00:53:22.065Z,101309.63
2019-03-13T00:55:51.896Z,101315.20
2019-03-13T00:58:21.767Z,101317.86
2019-03-13T01:01:16.712Z,101320.02
2019-03-13T01:03:57.012Z,101309.95
2019-03-13T01:06:29.671Z,101318.83
2019-03-13T01:08:59.467Z,101307.22
2019-03-13T01:11:30.241Z,101314.67
2019-03-13T01:14:00.020Z,101313.25
2019-03-13T01:16:30.020Z,101304.92
2019-03-13T01:18:59.902Z,101303.80
2019-03-13T01:21:29.767Z,101304.67
2019-03-13T01:23:59.662Z,101297.60
2019-03-13T01:26:29.459Z,101299.13
2019-03-13T01:28:59.195Z,101297.49
2019-03-13T01:32:06.375Z,101294.13
2019-03-13T01:34:45.841Z,101296.86
2019-03-13T01:37:15.955Z,101290.50
2019-03-13T01:39:45.877Z,101290.87
2019-03-13T01:42:15.791Z,101296.86
2019-03-13T01:44:45.650Z,101298.14
2019-03-13T01:47:15.527Z,101297.69
2019-03-13T01:49:45.399Z,101303.17
2019-03-13T01:52:15.218Z,101302.00
2019-03-13T01:54:44.950Z,101298.03
2019-03-13T01:57:14.991Z,101300.94
2019-03-13T01:59:44.731Z,101304.37
2019-03-13T02:02:14.621Z,101298.28
2019-03-13T02:04:44.334Z,101300.73
2019-03-13T02:07:14.300Z,101289.67
2019-03-13T02:09:44.048Z,101287.98
2019-03-13T02:12:16.117Z,101290.14
2019-03-13T02:14:46.088Z,101288.30
2019-03-13T02:17:15.864Z,101282.87
2019-03-13T02:19:45.765Z,101291.66
2019-03-13T02:22:15.636Z,101293.24
2019-03-13T02:24:45.486Z,101283.38
2019-03-13T02:27:15.428Z,101285.51
2019-03-13T02:29:45.281Z,101281.68
2019-03-13T02:32:15.057Z,101285.65
2019-03-13T02:34:44.762Z,101284.98
2019-03-13T02:37:14.744Z,101285.82
2019-03-13T02:39:44.603Z,101285.44
2019-03-13T02:42:14.340Z,101295.20
2019-03-13T02:44:44.298Z,101290.06
2019-03-13T02:47:18.381Z,101295.14
2019-03-13T02:49:45.518Z,101299.23
2019-03-13T02:52:15.464Z,101299.55
2019-03-13T02:54:45.137Z,101299.59
2019-03-13T02:57:14.862Z,101302.13
2019-03-13T02:59:44.732Z,101303.00
2019-03-13T03:02:23.065Z,101295.32
2019-03-13T03:04:53.060Z,101297.31
2019-03-13T03:07:22.723Z,101305.89
2019-03-13T03:09:52.526Z,101295.84
2019-03-13T03:12:22.392Z,101300.11
2019-03-13T03:15:10.069Z,101289.42
2019-03-13T03:17:39.935Z,101271.30
2019-03-13T03:20:12.762Z,101233.23
2019-03-13T03:22:42.483Z,101291.52
2019-03-13T03:25:12.906Z,101295.38
2019-03-13T03:27:42.939Z,101276.19
2019-03-13T03:30:19.516Z,101280.95
2019-03-13T03:32:49.386Z,101289.91
2019-03-13T03:35:19.223Z,101299.47
2019-03-13T03:37:49.152Z,101278.67
2019-03-13T03:40:22.478Z,101280.38
2019-03-13T03:42:50.736Z,101279.55
2019-03-13T03:45:21.018Z,101287.27
2019-03-13T03:47:50.924Z,101274.41
2019-03-13T03:50:20.671Z,101274.82
2019-03-13T03:52:50.293Z,101284.69
2019-03-13T03:55:20.291Z,101274.82
2019-03-13T03:57:49.915Z,101285.19
2019-03-13T04:00:19.928Z,101277.91
2019-03-13T04:02:49.821Z,101295.09
2019-03-13T04:05:20.154Z,101285.66
2019-03-13T04:07:49.794Z,101294.63
2019-03-13T04:10:19.616Z,101290.83
2019-03-13T04:12:49.648Z,101287.81
2019-03-13T04:15:19.444Z,101285.30
2019-03-13T04:17:49.387Z,101279.55
2019-03-13T04:20:20.641Z,101280.20
2019-03-13T04:22:50.386Z,101279.09
2019-03-13T04:25:35.219Z,101284.89
2019-03-13T04:28:05.801Z,101292.08
2019-03-13T04:30:35.839Z,101295.47
2019-03-13T04:33:05.651Z,101300.02
2019-03-13T04:35:35.645Z,101309.34
2019-03-13T04:38:05.377Z,101299.67
2019-03-13T04:40:35.101Z,101297.75
2019-03-13T04:43:05.026Z,101286.62
2019-03-13T04:45:34.846Z,101298.59
2019-03-13T04:48:05.017Z,101298.06
2019-03-13T04:50:34.676Z,101304.05
2019-03-13T04:53:04.595Z,101306.22
2019-03-13T04:55:34.316Z,101318.92
2019-03-13T04:58:04.118Z,101324.97
2019-03-13T05:00:33.970Z,101303.12
2019-03-13T05:03:03.753Z,101317.25
2019-03-13T05:05:54.049Z,101323.42
2019-03-13T05:08:45.355Z,101323.91
2019-03-13T05:11:13.900Z,101312.66
2019-03-13T05:13:43.748Z,101323.45
2019-03-13T05:16:13.557Z,101328.37
2019-03-13T05:18:43.534Z,101332.52
2019-03-13T05:21:13.387Z,101334.56
2019-03-13T05:23:43.333Z,101340.03
2019-03-13T05:26:14.483Z,101339.28
2019-03-13T05:28:44.371Z,101347.22
2019-03-13T05:31:14.348Z,101346.44
2019-03-13T05:33:44.106Z,101343.58
2019-03-13T05:36:16.744Z,101353.19
2019-03-13T05:38:45.776Z,101347.41
2019-03-13T05:41:15.588Z,101354.19
2019-03-13T05:43:45.301Z,101356.76
2019-03-13T05:46:15.107Z,101349.45
2019-03-13T05:48:44.760Z,101360.93
2019-03-13T05:51:14.557Z,101365.58
2019-03-13T05:53:44.445Z,101357.53
2019-03-13T05:56:14.215Z,101372.63
2019-03-13T05:58:44.101Z,101367.17
2019-03-13T06:01:14.165Z,101379.09
2019-03-13T06:03:43.947Z,101360.83
2019-03-13T06:06:13.985Z,101362.30
2019-03-13T06:08:43.731Z,101373.48
2019-03-13T06:11:13.481Z,101370.73
2019-03-13T06:13:43.305Z,101383.75
2019-03-13T06:16:13.173Z,101374.12
2019-03-13T06:18:42.980Z,101370.77
2019-03-13T06:21:12.960Z,101349.94
2019-03-13T06:23:42.851Z,101388.30
2019-03-13T06:26:12.617Z,101372.87
2019-03-13T06:28:42.490Z,101384.46
2019-03-13T06:31:12.569Z,101391.59
2019-03-13T06:33:42.386Z,101391.45
2019-03-13T06:36:12.332Z,101383.02
2019-03-13T06:38:42.260Z,101387.31
2019-03-13T06:41:12.046Z,101389.41
2019-03-13T06:43:41.891Z,101389.41
2019-03-13T06:46:11.616Z,101389.69
2019-03-13T06:48:41.365Z,101380.19
2019-03-13T06:51:11.145Z,101390.61
2019-03-13T06:53:41.086Z,101383.17
2019-03-13T06:56:10.943Z,101390.91
2019-03-13T06:58:55.779Z,101386.91
2019-03-13T07:01:32.648Z,101403.01
2019-03-13T07:04:30.720Z,101399.13
2019-03-13T07:07:25.252Z,101385.06
2019-03-13T07:10:03.625Z,101399.91
2019-03-13T07:13:03.902Z,101414.55
2019-03-13T07:15:58.680Z,101400.83
2019-03-13T07:18:45.869Z,101406.36
2019-03-13T07:21:43.696Z,101405.18
2019-03-13T07:24:35.171Z,101434.21
2019-03-13T07:27:22.665Z,101392.69
2019-03-13T07:30:09.802Z,101403.59
2019-03-13T07:33:01.620Z,101402.02
2019-03-13T07:35:49.086Z,101406.17
2019-03-13T07:38:40.881Z,101407.17
2019-03-13T07:41:30.888Z,101413.69
2019-03-13T07:44:21.026Z,101419.84
2019-03-13T07:47:24.735Z,101432.15
2019-03-13T07:50:09.345Z,101408.34
2019-03-13T07:53:13.406Z,101422.16
2019-03-13T07:55:50.641Z,101409.05
2019-03-13T07:58:48.285Z,101409.75
2019-03-13T08:01:43.905Z,101398.63
2019-03-13T08:04:24.826Z,101431.42
2019-03-13T08:07:12.126Z,101414.02
2019-03-13T08:10:03.652Z,101422.30
2019-03-13T08:13:04.498Z,101396.32
2019-03-13T08:15:54.014Z,101381.11
2019-03-13T08:18:41.399Z,101409.76
2019-03-13T08:21:38.952Z,101400.05
2019-03-13T08:24:29.043Z,101371.57
2019-03-13T08:27:16.841Z,101394.72
2019-03-13T08:29:57.235Z,101381.19
2019-03-13T08:32:45.313Z,101398.17
2019-03-13T08:35:30.472Z,101394.84
2019-03-13T08:38:19.159Z,101403.09
2019-03-13T08:41:01.845Z,101400.59
2019-03-13T08:43:51.707Z,101387.42
2019-03-13T08:46:32.426Z,101399.34
2019-03-13T08:49:18.558Z,101410.38
2019-03-13T08:51:58.285Z,101387.74
2019-03-13T08:54:41.557Z,101359.23
2019-03-13T08:57:24.014Z,101381.39
2019-03-13T09:00:22.114Z,101373.75
2019-03-13T09:03:01.183Z,101362.70
2019-03-13T09:05:52.722Z,101367.11
2019-03-13T09:08:56.501Z,101349.91
2019-03-13T09:11:48.515Z,101377.42
2019-03-13T09:14:29.686Z,101358.38
2019-03-13T09:17:18.442Z,101374.34
2019-03-13T09:20:13.327Z,101384.82
2019-03-13T09:22:49.260Z,101382.22
2019-03-13T09:25:38.022Z,101341.49
2019-03-13T09:28:45.936Z,101380.67
2019-03-13T09:31:25.646Z,101385.22
2019-03-13T09:34:17.619Z,101394.26
2019-03-13T09:36:57.489Z,101390.62
2019-03-13T09:39:35.534Z,101384.80
2019-03-13T09:42:14.290Z,101379.12
2019-03-13T09:45:03.043Z,101388.30
2019-03-13T09:47:57.946Z,101380.52
2019-03-13T09:50:36.146Z,101385.72
2019-03-13T09:53:13.384Z,101385.31
2019-03-13T09:55:52.343Z,101387.98
2019-03-13T09:58:44.118Z,101395.36
2019-03-13T10:01:25.999Z,101401.52
2019-03-13T10:04:20.477Z,101400.89
2019-03-13T10:07:12.617Z,101395.30
2019-03-13T10:10:10.674Z,101402.81
2019-03-13T10:13:02.439Z,101385.30
2019-03-13T10:15:51.286Z,101392.59
2019-03-13T10:18:40.008Z,101400.31
2019-03-13T10:21:31.628Z,101400.64
2019-03-13T10:24:26.413Z,101398.03
2019-03-13T10:27:24.477Z,101390.20
2019-03-13T10:30:08.189Z,101385.30
2019-03-13T10:32:47.423Z,101379.98
2019-03-13T10:35:39.061Z,101380.17
2019-03-13T10:38:37.051Z,101376.09
2019-03-13T10:41:28.608Z,101379.81
2019-03-13T10:44:09.002Z,101380.82
2019-03-13T10:47:12.741Z,101364.94
2019-03-13T10:49:51.218Z,101359.73
2019-03-13T10:52:39.760Z,101352.72
2019-03-13T10:55:38.199Z,101359.50
2019-03-13T10:58:26.674Z,101358.81
2019-03-13T11:01:18.388Z,101354.75
2019-03-13T11:04:07.769Z,101360.94
2019-03-13T11:06:54.887Z,101345.91
2019-03-13T11:09:34.433Z,101340.70
2019-03-13T11:12:32.084Z,101345.23
2019-03-13T11:15:20.773Z,101349.91
2019-03-13T11:18:00.046Z,101338.85
2019-03-13T11:20:48.737Z,101339.03
2019-03-13T11:23:37.566Z,101341.53
2019-03-13T11:26:32.504Z,101343.94
2019-03-13T11:29:21.236Z,101329.69
2019-03-13T11:32:28.185Z,101339.90
2019-03-13T11:35:15.661Z,101326.33
2019-03-13T11:38:07.174Z,101323.39
2019-03-13T11:40:58.770Z,101321.87
2019-03-13T11:44:05.821Z,101325.78
2019-03-13T11:46:44.443Z,101317.06
2019-03-13T11:49:31.650Z,101321.47
2019-03-13T11:52:23.436Z,101318.45
2019-03-13T11:55:12.098Z,101307.81
2019-03-13T11:58:00.728Z,101305.25
2019-03-13T12:00:46.674Z,101316.31
2019-03-13T12:03:35.278Z,101309.02
2019-03-13T12:06:29.945Z,101317.28
2019-03-13T12:09:09.309Z,101315.02
2019-03-13T12:12:02.567Z,101321.19
2019-03-13T12:14:57.123Z,101310.76
2019-03-13T12:17:40.552Z,101316.34
2019-03-13T12:20:32.408Z,101314.20
2019-03-13T12:23:37.771Z,101311.52
2019-03-13T12:26:43.280Z,101308.63
2019-03-13T12:29:30.372Z,101303.72
2019-03-13T12:32:08.705Z,101316.31
2019-03-13T12:34:57.230Z,101317.61
2019-03-13T12:37:52.200Z,101308.80
2019-03-13T12:40:39.690Z,101310.08
2019-03-13T12:43:29.624Z,101308.35
2019-03-13T12:46:30.681Z,101298.91
2019-03-13T12:49:08.066Z,101307.60
2019-03-13T12:51:59.601Z,101302.81
2019-03-13T12:54:51.416Z,101309.77
2019-03-13T12:57:58.601Z,101311.28
2019-03-13T13:00:36.079Z,101307.15
2019-03-13T13:03:25.049Z,101314.62
2019-03-13T13:06:19.461Z,101311.13
2019-03-13T13:09:07.160Z,101305.91
2019-03-13T13:11:45.728Z,101307.95
2019-03-13T13:14:52.267Z,101306.16
2019-03-13T13:17:34.311Z,101309.17
2019-03-13T13:20:05.658Z,101312.39
2019-03-13T13:22:35.472Z,101310.20
2019-03-13T13:25:06.387Z,101300.03
2019-03-13T13:27:36.176Z,101298.59
2019-03-13T13:30:06.720Z,101295.73
2019-03-13T13:32:37.849Z,101293.20
2019-03-13T13:35:09.176Z,101298.89
2019-03-13T13:37:39.090Z,101293.46
2019-03-13T13:40:10.606Z,101297.44
2019-03-13T13:42:40.410Z,101303.58
2019-03-13T13:45:33.009Z,101300.26
2019-03-13T13:48:03.015Z,101300.75
2019-03-13T13:50:32.934Z,101297.13
2019-03-13T13:53:02.938Z,101291.00
2019-03-13T13:55:32.855Z,101300.17
2019-03-13T13:58:02.761Z,101306.23
2019-03-13T14:00:32.782Z,101305.61
2019-03-13T14:03:02.906Z,101312.39
2019-03-13T14:06:06.349Z,101306.95
2019-03-13T14:09:05.047Z,101309.42
2019-03-13T14:12:16.082Z,101302.34
2019-03-13T14:14:58.550Z,101304.91
2019-03-13T14:17:35.675Z,101302.14
2019-03-13T14:20:44.685Z,101302.89
2019-03-13T14:23:42.615Z,101309.45
2019-03-13T14:26:50.466Z,101298.67
2019-03-13T14:34:02.181Z,101305.52
2019-03-13T14:36:29.913Z,101308.48
2019-03-13T14:39:22.692Z,101306.81
2019-03-13T14:45:49.186Z,101313.23
2019-03-13T14:49:08.179Z,101313.70
2019-03-13T14:51:46.929Z,101312.09
2019-03-13T14:55:16.229Z,101310.73
2019-03-13T14:58:13.093Z,101314.77
2019-03-13T15:01:19.845Z,101319.31
2019-03-13T15:08:09.553Z,101329.56
2019-03-13T15:11:00.204Z,101326.89
2019-03-13T15:14:24.801Z,101320.68
2019-03-13T15:17:43.290Z,101316.70
2019-03-13T15:20:47.392Z,101327.09
2019-03-13T15:23:26.710Z,101324.32
2019-03-13T15:26:32.190Z,101326.98
2019-03-13T15:29:22.424Z,101322.35
2019-03-13T15:32:09.020Z,101323.02
2019-03-13T15:38:27.701Z,101326.69
2019-03-13T15:41:29.688Z,101322.78
2019-03-13T15:44:38.876Z,101314.48
2019-03-13T15:48:12.929Z,101323.55
2019-03-13T15:50:23.533Z,101321.28
2019-03-13T15:53:38.702Z,101323.03
2019-03-13T15:56:53.851Z,101318.64
2019-03-13T15:59:51.100Z,101325.84
2019-03-13T16:02:30.370Z,101318.56
2019-03-13T16:05:24.618Z,101325.81
2019-03-13T16:08:13.366Z,101325.95
2019-03-13T16:11:28.712Z,101327.56
2019-03-13T16:14:17.818Z,101331.95
2019-03-13T16:17:10.211Z,101339.17
2019-03-13T16:19:56.714Z,101337.02
2019-03-13T16:22:43.812Z,101335.81
2019-03-13T16:25:29.137Z,101335.20
2019-03-13T16:28:37.627Z,101335.41
2019-03-13T16:31:26.441Z,101335.66
2019-03-13T16:34:19.651Z,101332.84
2019-03-13T16:37:29.591Z,101308.72
2019-03-13T16:40:16.162Z,101335.87
2019-03-13T16:43:17.767Z,101337.55
2019-03-13T16:46:16.996Z,101334.41
2019-03-13T16:49:20.684Z,101340.81
2019-03-13T16:52:15.827Z,101343.88
2019-03-13T16:55:19.073Z,101347.74
2019-03-13T16:57:54.910Z,101353.77
2019-03-13T17:01:10.504Z,101357.23
2019-03-13T17:04:03.127Z,101352.93
2019-03-13T17:10:39.047Z,101351.42
2019-03-13T17:13:13.216Z,101355.80
2019-03-13T17:19:24.154Z,101350.21
2019-03-13T17:22:28.896Z,101350.39
2019-03-13T17:25:19.083Z,101358.77
2019-03-13T17:28:05.315Z,101353.76
2019-03-13T17:30:59.330Z,101298.92
2019-03-13T17:33:44.228Z,101350.84
2019-03-13T17:36:45.097Z,101351.50
2019-03-13T17:39:56.436Z,101357.66
2019-03-13T17:46:13.290Z,101353.27
2019-03-13T17:49:00.150Z,101357.88
2019-03-13T17:52:17.940Z,101354.27
2019-03-13T17:55:04.333Z,101354.63
2019-03-13T17:58:04.451Z,101356.33
2019-03-13T18:01:01.392Z,101350.33
2019-03-13T18:07:24.248Z,101344.98
2019-03-13T18:10:42.994Z,101347.05
2019-03-13T18:13:42.444Z,101350.70
2019-03-13T18:16:45.070Z,101346.47
2019-03-13T18:22:51.673Z,101348.56
2019-03-13T18:25:41.635Z,101348.71
2019-03-13T18:28:11.544Z,101355.49
2019-03-13T18:30:41.399Z,101355.56
2019-03-13T18:33:11.448Z,101362.05
2019-03-13T18:35:41.448Z,101359.06
2019-03-13T18:38:12.434Z,101355.60
2019-03-13T18:40:42.191Z,101352.73
2019-03-13T18:43:12.568Z,101350.16
2019-03-13T18:45:42.583Z,101343.38
2019-03-13T18:48:12.480Z,101344.37
2019-03-13T18:50:42.590Z,101356.59
2019-03-13T18:53:12.546Z,101366.87
2019-03-13T18:55:43.011Z,101359.58
2019-03-13T18:58:14.306Z,101359.17
2019-03-13T19:00:44.225Z,101352.84
2019-03-13T19:03:14.073Z,101348.86
2019-03-13T19:05:44.125Z,101347.23
2019-03-13T19:08:14.689Z,101348.97
2019-03-13T19:10:44.743Z,101351.59
2019-03-13T19:13:14.784Z,101358.14
2019-03-13T19:15:45.064Z,101353.28
2019-03-13T19:18:15.102Z,101355.97
2019-03-13T19:20:44.922Z,101351.25
2019-03-13T19:23:14.846Z,101349.86
2019-03-13T19:25:44.699Z,101348.27
2019-03-13T19:28:14.589Z,101347.53
2019-03-13T19:30:44.329Z,101345.40
2019-03-13T19:33:14.764Z,101340.13
2019-03-13T19:35:44.542Z,101340.61
2019-03-13T19:38:14.933Z,101340.39
2019-03-13T19:40:44.915Z,101335.68
2019-03-13T19:43:16.042Z,101331.22
2019-03-13T19:45:45.999Z,101335.49
2019-03-13T19:48:15.942Z,101334.09
2019-03-13T19:50:47.012Z,101341.98
2019-03-13T19:53:17.251Z,101337.30
2019-03-13T19:55:46.983Z,101348.05
2019-03-13T19:58:16.979Z,101344.03
2019-03-13T20:00:47.009Z,101345.31
2019-03-13T20:03:16.834Z,101340.61
2019-03-13T20:05:46.975Z,101344.91
2019-03-13T20:08:17.095Z,101348.73
2019-03-13T20:10:46.801Z,101345.25
2019-03-13T20:13:16.795Z,101340.27
2019-03-13T20:15:47.890Z,101336.99
2019-03-13T20:18:17.876Z,101334.86
2019-03-13T20:20:47.968Z,101342.42
2019-03-13T20:23:17.787Z,101345.25
2019-03-13T20:25:47.778Z,101346.75
2019-03-13T20:28:17.498Z,101349.83
2019-03-13T20:30:47.176Z,101353.62
2019-03-13T20:33:17.668Z,101347.77
2019-03-13T20:35:47.926Z,101351.58
2019-03-13T20:38:19.225Z,101347.84
2019-03-13T20:40:49.307Z,101347.94
2019-03-13T20:43:19.232Z,101349.50
2019-03-13T20:45:49.608Z,101350.09
2019-03-13T20:48:19.333Z,101351.31
2019-03-13T20:50:49.268Z,101354.16
2019-03-13T20:53:20.357Z,101347.73
2019-03-13T20:55:50.226Z,101348.30
2019-03-13T20:58:20.020Z,101353.20
2019-03-13T21:00:51.107Z,101353.45
2019-03-13T21:03:20.983Z,101353.32
2019-03-13T21:05:50.959Z,101350.23
2019-03-13T21:08:20.658Z,101341.47
2019-03-13T21:10:50.535Z,101339.39
2019-03-13T21:13:20.347Z,101335.75
2019-03-13T21:15:50.322Z,101323.68
2019-03-13T21:18:20.087Z,101321.17
2019-03-13T21:20:49.889Z,101315.00
2019-03-13T21:23:19.987Z,101319.24
2019-03-13T21:25:49.776Z,101313.52
2019-03-13T21:28:19.687Z,101308.78
2019-03-13T21:30:49.465Z,101311.21
2019-03-13T21:33:19.253Z,101308.70
2019-03-13T21:35:49.087Z,101313.95
2019-03-13T21:38:18.919Z,101308.55
2019-03-13T21:40:48.931Z,101305.02
2019-03-13T21:43:19.001Z,101303.30
2019-03-13T21:45:49.049Z,101299.67
2019-03-13T21:48:19.013Z,101307.73
2019-03-13T21:50:50.383Z,101309.28
2019-03-13T21:53:20.405Z,101303.20
2019-03-13T21:55:50.291Z,101311.20
2019-03-13T21:58:20.183Z,101300.66
2019-03-13T22:00:50.286Z,101308.00
2019-03-13T22:03:28.719Z,101301.72
2019-03-13T22:05:51.704Z,101300.84
2019-03-13T22:08:21.480Z,101309.14
2019-03-13T22:10:51.221Z,101306.97
2019-03-13T22:13:21.149Z,101298.09
2019-03-13T22:15:51.080Z,101294.67
2019-03-13T22:18:20.878Z,101282.23
2019-03-13T22:20:50.875Z,101275.38
2019-03-13T22:23:20.905Z,101267.00
2019-03-13T22:25:50.771Z,101265.62
2019-03-13T22:28:20.621Z,101251.93
2019-03-13T22:30:50.558Z,101251.48
2019-03-13T22:33:20.630Z,101245.89
2019-03-13T22:35:50.391Z,101234.80
2019-03-13T22:38:20.279Z,101226.24
2019-03-13T22:40:49.958Z,101227.28
2019-03-13T22:43:19.719Z,101228.48
2019-03-13T22:45:49.436Z,101233.92
2019-03-13T22:48:19.389Z,101222.54
2019-03-13T22:50:49.275Z,101225.24
2019-03-13T22:53:19.095Z,101229.75
2019-03-13T22:55:48.942Z,101227.91
2019-03-13T22:58:18.694Z,101226.50
2019-03-13T23:00:57.350Z,101223.41
2019-03-13T23:03:28.652Z,101219.17
2019-03-13T23:05:59.126Z,101232.25
2019-03-13T23:08:31.147Z,101227.63
2019-03-13T23:11:00.469Z,101221.97
2019-03-13T23:13:30.303Z,101218.20
2019-03-13T23:16:00.167Z,101222.78
2019-03-13T23:18:30.141Z,101224.86
2019-03-13T23:20:59.840Z,101221.19
2019-03-13T23:23:29.813Z,101229.44
2019-03-13T23:25:59.706Z,101234.77
2019-03-13T23:28:29.681Z,101236.27
2019-03-13T23:30:59.646Z,101231.92
2019-03-13T23:33:29.541Z,101224.52
2019-03-13T23:35:59.365Z,101218.50
2019-03-13T23:38:30.412Z,101220.02
2019-03-13T23:41:00.188Z,101215.23
2019-03-13T23:43:30.023Z,101230.61
2019-03-13T23:46:00.027Z,101228.05
2019-03-13T23:48:29.857Z,101219.72
2019-03-13T23:50:59.881Z,101217.80
2019-03-13T23:53:29.785Z,101215.81
2019-03-13T23:55:59.584Z,101212.92
2019-03-13T23:58:29.668Z,101211.18
